Time;durP1;ratioP1;P1;durP2;ratioP2;P2;SDS_P1;SDS_P2;PMS_P1;PMS_P2;Temp;Humidity;BMP_temperature;BMP_pressure;BME280_temperature;BME280_humidity;BME280_pressure;Samples;Min_cycle;Max_cycle;Signal;HPM_P1;HPM_P2
2023/04/09 00:01:49;;;;;;;21.02;16.40;;;6.20;12.20;;;;;;7370118;19;20088;-74
2023/04/09 00:04:19;;;;;;;21.33;15.45;;;6.20;12.90;;;;;;7395083;19;20341;-74
2023/04/09 00:06:49;;;;;;;20.05;15.43;;;6.20;13.30;;;;;;7372163;19;20003;-75
2023/04/09 00:09:19;;;;;;;19.55;15.75;;;6.30;13.40;;;;;;7370803;19;20788;-74
2023/04/09 00:11:52;;;;;;;19.92;15.32;;;6.20;11.80;;;;;;7370625;19;20109;-74
2023/04/09 00:14:22;;;;;;;17.42;14.55;;;6.20;11.90;;;;;;7370209;19;20013;-74
2023/04/09 00:16:51;;;;;;;20.83;16.02;;;6.20;11.10;;;;;;7371277;19;20082;-74
2023/04/09 00:19:22;;;;;;;20.45;15.07;;;6.20;11.10;;;;;;7391481;19;20027;-75
2023/04/09 00:21:52;;;;;;;21.95;16.67;;;6.20;11.80;;;;;;7370954;19;20014;-73
2023/04/09 00:24:21;;;;;;;21.30;15.93;;;6.20;11.70;;;;;;7370446;19;20024;-74
2023/04/09 00:26:55;;;;;;;24.63;17.80;;;6.30;10.80;;;;;;7371476;19;20006;-74
2023/04/09 00:29:25;;;;;;;24.48;17.55;;;6.30;11.20;;;;;;7367903;19;20015;-74
2023/04/09 00:31:54;;;;;;;22.15;17.27;;;6.40;10.80;;;;;;7369923;19;20013;-74
2023/04/09 00:34:25;;;;;;;27.00;17.70;;;6.40;10.60;;;;;;7392533;19;20021;-73
2023/04/09 00:36:55;;;;;;;23.63;17.98;;;6.50;10.10;;;;;;7370702;19;20017;-73
2023/04/09 00:39:25;;;;;;;21.83;17.40;;;6.40;9.60;;;;;;7368667;19;20015;-74
2023/04/09 00:42:01;;;;;;;26.63;19.10;;;6.40;9.90;;;;;;7368682;19;20403;-74
2023/04/09 00:44:31;;;;;;;21.90;16.85;;;6.40;10.80;;;;;;7369442;19;20098;-73
2023/04/09 00:47:01;;;;;;;22.50;17.10;;;6.40;10.30;;;;;;7370417;19;20395;-74
2023/04/09 00:49:32;;;;;;;24.23;18.13;;;6.40;10.50;;;;;;7368227;19;20026;-75
2023/04/09 00:52:02;;;;;;;23.27;17.65;;;6.40;9.90;;;;;;7391551;19;20014;-76
2023/04/09 00:54:35;;;;;;;23.00;17.65;;;6.50;9.80;;;;;;7368960;19;20470;-74
2023/04/09 00:57:07;;;;;;;24.98;16.95;;;6.50;9.40;;;;;;7370007;19;20006;-74
2023/04/09 00:59:37;;;;;;;23.17;16.67;;;6.40;9.80;;;;;;7369008;19;20042;-74
2023/04/09 01:02:07;;;;;;;24.05;17.40;;;6.40;9.40;;;;;;7369213;19;20019;-75
2023/04/09 01:04:38;;;;;;;26.58;17.45;;;6.40;9.90;;;;;;7369548;19;20006;-74
2023/04/09 01:07:14;;;;;;;22.25;15.98;;;6.40;9.60;;;;;;7392777;19;20031;-75
2023/04/09 01:09:50;;;;;;;19.48;14.43;;;6.40;9.90;;;;;;7368582;19;20017;-74
2023/04/09 01:12:34;;;;;;;20.65;15.65;;;6.40;9.80;;;;;;7367933;19;20007;-73
2023/04/09 01:15:07;;;;;;;20.02;15.07;;;6.30;9.10;;;;;;7369211;19;20589;-74
2023/04/09 01:17:43;;;;;;;18.95;15.02;;;6.30;9.20;;;;;;7369851;19;20434;-73
2023/04/09 01:20:16;;;;;;;18.20;13.50;;;6.30;9.30;;;;;;7368857;19;20006;-75
2023/04/09 01:22:59;;;;;;;17.33;13.00;;;6.40;9.30;;;;;;7368412;19;20090;-74
2023/04/09 01:25:39;;;;;;;17.70;13.32;;;6.40;8.10;;;;;;7368430;19;20463;-74
2023/04/09 01:28:25;;;;;;;16.35;12.95;;;6.40;8.10;;;;;;7391609;19;20015;-74
2023/04/09 01:31:00;;;;;;;16.25;12.68;;;6.40;8.60;;;;;;7366510;19;20018;-73
2023/04/09 01:33:32;;;;;;;17.55;13.55;;;6.40;8.60;;;;;;7367333;19;20495;-74
2023/04/09 01:36:06;;;;;;;16.30;12.95;;;6.50;8.50;;;;;;7369427;19;20039;-74
2023/04/09 01:38:37;;;;;;;15.15;12.38;;;6.50;6.80;;;;;;7368316;19;20010;-74
2023/04/09 01:41:09;;;;;;;15.93;12.35;;;6.40;7.70;;;;;;7366453;19;20033;-74
2023/04/09 01:43:43;;;;;;;16.92;13.25;;;6.50;8.60;;;;;;7367749;19;20002;-74
2023/04/09 01:46:13;;;;;;;16.55;12.60;;;6.50;8.40;;;;;;7391432;19;20006;-74
2023/04/09 01:48:45;;;;;;;17.02;12.88;;;6.50;8.50;;;;;;7368836;19;20015;-74
2023/04/09 01:51:16;;;;;;;15.60;12.18;;;6.50;8.50;;;;;;7367767;19;20355;-74
2023/04/09 01:53:46;;;;;;;18.13;13.10;;;6.50;8.50;;;;;;7366714;19;20010;-73
2023/04/09 01:56:16;;;;;;;17.10;12.65;;;6.50;8.20;;;;;;7367975;19;20011;-72
2023/04/09 01:58:48;;;;;;;17.02;12.68;;;6.40;7.70;;;;;;7369629;19;20007;-74
2023/04/09 02:01:25;;;;;;;14.52;11.88;;;6.40;8.20;;;;;;7397361;19;20014;-74
2023/04/09 02:03:58;;;;;;;15.68;12.20;;;6.30;8.20;;;;;;7374826;19;20022;-74
2023/04/09 02:06:34;;;;;;;14.93;12.23;;;6.30;8.40;;;;;;7375272;19;20014;-73
2023/04/09 02:09:06;;;;;;;16.98;12.82;;;6.30;8.60;;;;;;7375146;19;20062;-74
2023/04/09 02:11:39;;;;;;;16.73;12.10;;;6.30;8.40;;;;;;7374163;19;20010;-75
2023/04/09 02:14:13;;;;;;;15.57;11.68;;;6.30;8.70;;;;;;7374946;19;20105;-74
2023/04/09 02:16:43;;;;;;;18.17;12.45;;;6.30;8.20;;;;;;7375802;19;20035;-74
2023/04/09 02:19:13;;;;;;;16.70;11.70;;;6.40;8.50;;;;;;7394168;19;20011;-73
2023/04/09 02:21:43;;;;;;;15.20;12.15;;;6.40;8.40;;;;;;7371402;19;20463;-74
2023/04/09 02:24:13;;;;;;;17.10;12.40;;;6.40;7.60;;;;;;7373574;19;20062;-74
2023/04/09 02:26:43;;;;;;;16.80;12.10;;;6.40;7.80;;;;;;7373987;19;20030;-74
2023/04/09 02:29:15;;;;;;;16.05;12.15;;;6.40;8.50;;;;;;7372399;19;20379;-74
2023/04/09 02:31:45;;;;;;;17.77;13.55;;;6.40;8.50;;;;;;7372612;19;20007;-74
2023/04/09 02:34:15;;;;;;;18.77;13.05;;;6.40;8.60;;;;;;7396358;19;20014;-73
2023/04/09 02:36:45;;;;;;;17.52;12.38;;;6.40;8.40;;;;;;7374952;19;20006;-73
2023/04/09 02:39:15;;;;;;;16.75;12.30;;;6.30;8.40;;;;;;7372823;19;20014;-73
2023/04/09 02:41:45;;;;;;;17.33;11.98;;;6.30;8.50;;;;;;7372555;19;20014;-73
2023/04/09 02:44:17;;;;;;;17.00;12.18;;;6.20;9.20;;;;;;7373920;19;20010;-74
2023/04/09 02:46:50;;;;;;;16.00;11.95;;;6.20;9.60;;;;;;7374115;19;20007;-74
2023/04/09 02:49:20;;;;;;;15.63;12.20;;;6.20;9.60;;;;;;7393703;19;20011;-74
2023/04/09 02:51:50;;;;;;;20.67;13.50;;;6.20;9.80;;;;;;7372503;19;20495;-75
2023/04/09 02:54:19;;;;;;;15.70;11.63;;;6.10;9.70;;;;;;7372604;19;20014;-74
2023/04/09 02:56:49;;;;;;;15.63;12.07;;;6.10;9.70;;;;;;7373875;19;20018;-73
2023/04/09 02:59:22;;;;;;;17.17;12.45;;;6.10;10.90;;;;;;7372187;19;20014;-73
2023/04/09 03:01:52;;;;;;;17.15;12.75;;;6.10;11.50;;;;;;7372714;19;20015;-75
2023/04/09 03:04:22;;;;;;;16.65;13.18;;;6.20;11.40;;;;;;7395529;19;20010;-74
2023/04/09 03:06:52;;;;;;;18.17;12.88;;;6.10;11.50;;;;;;7374888;19;20053;-73
2023/04/09 03:09:22;;;;;;;16.48;12.55;;;6.10;11.90;;;;;;7373089;19;20018;-73
2023/04/09 03:11:51;;;;;;;17.38;13.20;;;6.10;12.10;;;;;;7374109;19;20014;-76
2023/04/09 03:14:24;;;;;;;18.08;12.82;;;6.10;12.30;;;;;;7371570;19;20036;-74
2023/04/09 03:16:54;;;;;;;19.20;13.80;;;6.10;12.60;;;;;;7373480;19;20021;-74
2023/04/09 03:19:24;;;;;;;18.05;13.05;;;6.10;12.20;;;;;;7407656;19;20006;-73
2023/04/09 03:21:54;;;;;;;17.85;12.57;;;6.10;12.50;;;;;;7406572;19;20028;-75
2023/04/09 03:24:23;;;;;;;16.55;12.70;;;6.10;12.10;;;;;;7407309;19;20018;-73
2023/04/09 03:26:53;;;;;;;16.08;12.25;;;6.10;12.50;;;;;;7388612;19;20031;-73
2023/04/09 03:29:26;;;;;;;16.85;12.70;;;6.10;12.10;;;;;;7372451;19;20034;-73
2023/04/09 03:31:56;;;;;;;17.38;13.13;;;6.10;12.80;;;;;;7371582;19;20014;-73
2023/04/09 03:34:26;;;;;;;19.67;12.88;;;6.10;13.30;;;;;;7394176;19;20018;-75
2023/04/09 03:36:56;;;;;;;16.08;11.77;;;6.00;13.30;;;;;;7372655;19;20043;-74
2023/04/09 03:39:29;;;;;;;17.05;13.00;;;5.90;13.20;;;;;;7369249;19;20015;-73
2023/04/09 03:42:00;;;;;;;17.52;12.65;;;5.90;13.50;;;;;;7371037;19;20368;-73
2023/04/09 03:44:33;;;;;;;17.05;13.25;;;5.90;13.80;;;;;;7370669;19;20034;-73
2023/04/09 03:47:03;;;;;;;19.50;14.20;;;5.90;13.80;;;;;;7372745;19;20455;-74
2023/04/09 03:49:33;;;;;;;17.33;13.13;;;5.90;13.40;;;;;;7370544;19;20078;-73
2023/04/09 03:52:03;;;;;;;20.30;14.27;;;6.00;14.10;;;;;;7392158;19;20486;-73
2023/04/09 03:54:33;;;;;;;17.95;13.43;;;6.00;13.60;;;;;;7371017;19;20078;-74
2023/04/09 03:57:03;;;;;;;17.33;13.27;;;6.00;13.30;;;;;;7371771;19;20015;-74
2023/04/09 03:59:35;;;;;;;17.33;12.38;;;6.00;13.20;;;;;;7370544;19;20010;-74
2023/04/09 04:02:05;;;;;;;18.65;13.23;;;6.00;13.20;;;;;;7370473;19;20030;-74
2023/04/09 04:04:35;;;;;;;18.35;13.18;;;6.10;13.30;;;;;;7371987;19;20079;-72
2023/04/09 04:07:06;;;;;;;17.83;13.40;;;6.00;13.20;;;;;;7393867;19;20121;-74
2023/04/09 04:09:36;;;;;;;18.85;13.25;;;6.00;13.20;;;;;;7369794;19;20340;-73
2023/04/09 04:12:06;;;;;;;17.08;12.75;;;6.00;13.60;;;;;;7370185;19;20018;-74
2023/04/09 04:14:39;;;;;;;17.75;12.85;;;6.00;14.10;;;;;;7369257;19;20034;-73
2023/04/09 04:17:09;;;;;;;18.75;13.65;;;6.00;14.10;;;;;;7371498;19;20015;-74
2023/04/09 04:19:38;;;;;;;17.23;12.43;;;5.90;14.20;;;;;;7369024;19;20081;-75
2023/04/09 04:22:08;;;;;;;17.33;12.50;;;5.90;15.00;;;;;;7390633;19;20414;-74
2023/04/09 04:24:38;;;;;;;19.33;13.35;;;5.90;14.80;;;;;;7370203;19;20481;-73
2023/04/09 04:27:08;;;;;;;18.65;13.95;;;5.90;14.90;;;;;;7370456;19;20014;-73
2023/04/09 04:29:41;;;;;;;19.35;13.75;;;5.90;15.40;;;;;;7368740;19;20047;-72
2023/04/09 04:32:10;;;;;;;18.75;13.38;;;5.90;16.00;;;;;;7369845;19;20013;-73
2023/04/09 04:34:40;;;;;;;19.98;13.50;;;6.00;16.10;;;;;;7370504;19;20006;-73
2023/04/09 04:37:10;;;;;;;18.23;13.13;;;6.00;15.80;;;;;;7392160;19;20423;-75
2023/04/09 04:39:40;;;;;;;18.33;12.65;;;6.00;15.40;;;;;;7368297;19;20014;-74
2023/04/09 04:42:10;;;;;;;19.55;13.77;;;6.00;14.90;;;;;;7369281;19;20019;-74
2023/04/09 04:44:42;;;;;;;18.83;13.77;;;6.00;15.80;;;;;;7369613;19;20008;-73
2023/04/09 04:47:12;;;;;;;18.80;13.38;;;6.00;15.80;;;;;;7371234;19;20019;-74
2023/04/09 04:49:42;;;;;;;16.60;12.73;;;5.90;15.40;;;;;;7369165;19;20033;-74
2023/04/09 04:52:12;;;;;;;18.33;13.63;;;5.90;15.30;;;;;;7391297;19;20015;-74
2023/04/09 04:54:44;;;;;;;18.20;13.20;;;5.90;16.10;;;;;;7369843;19;20031;-74
2023/04/09 04:57:14;;;;;;;18.63;13.02;;;5.90;15.60;;;;;;7370456;19;20006;-75
2023/04/09 04:59:46;;;;;;;17.95;13.10;;;5.90;16.10;;;;;;7368500;19;20007;-73
2023/04/09 05:02:16;;;;;;;19.15;13.48;;;6.00;16.60;;;;;;7368388;19;20024;-74
2023/04/09 05:04:46;;;;;;;20.67;14.40;;;5.90;15.80;;;;;;7368906;19;20504;-73
2023/04/09 05:07:16;;;;;;;22.95;14.32;;;6.00;16.00;;;;;;7391616;19;20565;-75
2023/04/09 05:09:46;;;;;;;17.50;13.30;;;6.00;15.90;;;;;;7368517;19;20002;-73
2023/04/09 05:12:16;;;;;;;17.27;12.90;;;6.00;16.00;;;;;;7367646;19;20010;-74
2023/04/09 05:14:49;;;;;;;20.20;13.52;;;5.90;14.70;;;;;;7369018;19;20014;-75
2023/04/09 05:17:19;;;;;;;18.13;13.15;;;5.90;15.80;;;;;;7370181;19;20613;-75
2023/04/09 05:19:53;;;;;;;19.58;13.25;;;5.90;16.40;;;;;;7368053;19;20092;-75
2023/04/09 05:22:22;;;;;;;18.25;13.38;;;5.90;16.50;;;;;;7389240;19;20582;-74
2023/04/09 05:24:52;;;;;;;18.73;13.48;;;5.90;15.50;;;;;;7368695;19;20471;-74
2023/04/09 05:27:24;;;;;;;19.13;13.27;;;6.00;16.70;;;;;;7368734;19;20010;-74
2023/04/09 05:29:57;;;;;;;19.60;12.70;;;5.90;16.70;;;;;;7367052;19;20030;-74
2023/04/09 05:32:29;;;;;;;17.63;12.57;;;6.00;15.80;;;;;;7367092;19;20454;-74
2023/04/09 05:34:59;;;;;;;19.33;14.15;;;6.00;16.10;;;;;;7368556;19;20011;-76
2023/04/09 05:37:29;;;;;;;18.33;12.85;;;6.10;15.80;;;;;;7381601;19;20029;-74
2023/04/09 05:39:59;;;;;;;18.13;12.73;;;6.10;14.60;;;;;;7388486;19;20105;-74
2023/04/09 05:42:29;;;;;;;17.88;12.25;;;6.10;14.30;;;;;;7366794;19;20521;-74
2023/04/09 05:45:02;;;;;;;17.50;13.05;;;6.10;14.40;;;;;;7367686;19;20031;-75
2023/04/09 05:47:32;;;;;;;17.13;12.75;;;6.10;14.70;;;;;;7368220;19;20036;-74
2023/04/09 05:50:03;;;;;;;19.23;13.85;;;6.10;14.80;;;;;;7366315;19;20393;-75
2023/04/09 05:52:33;;;;;;;17.65;13.48;;;6.30;15.20;;;;;;7367451;19;20015;-73
2023/04/09 05:55:03;;;;;;;18.83;13.57;;;6.40;14.30;;;;;;7389757;19;20042;-75
2023/04/09 05:57:32;;;;;;;18.85;12.65;;;6.40;13.50;;;;;;7367842;19;20362;-74
2023/04/09 06:00:07;;;;;;;18.13;12.38;;;6.50;13.50;;;;;;7365971;19;20030;-75
2023/04/09 06:02:36;;;;;;;17.95;12.32;;;6.50;12.10;;;;;;7367300;19;20025;-75
2023/04/09 06:05:07;;;;;;;19.67;12.88;;;6.70;12.50;;;;;;7367621;19;20017;-75
2023/04/09 06:07:37;;;;;;;16.42;11.68;;;6.80;11.00;;;;;;7366051;19;20018;-73
2023/04/09 06:10:09;;;;;;;17.67;12.10;;;6.90;9.20;;;;;;7387024;19;20025;-74
2023/04/09 06:12:39;;;;;;;16.63;12.65;;;7.00;8.90;;;;;;7366794;19;20021;-73
2023/04/09 06:15:12;;;;;;;16.30;12.32;;;7.10;8.10;;;;;;7367258;19;20142;-75
2023/04/09 06:17:42;;;;;;;16.63;12.38;;;7.20;6.70;;;;;;7368165;19;20058;-75
2023/04/09 06:20:13;;;;;;;15.95;11.93;;;7.10;5.00;;;;;;7365107;19;20484;-74
2023/04/09 06:22:42;;;;;;;17.58;11.65;;;7.20;5.00;;;;;;7366809;19;20015;-73
2023/04/09 06:25:12;;;;;;;17.30;11.30;;;7.50;4.70;;;;;;7389248;19;20024;-75
2023/04/09 06:27:42;;;;;;;18.02;12.65;;;7.80;3.50;;;;;;7367714;19;20014;-75
2023/04/09 06:30:15;;;;;;;17.20;12.00;;;8.10;1.60;;;;;;7364807;19;20007;-74
2023/04/09 06:32:47;;;;;;;25.70;13.07;;;8.40;1.00;;;;;;7368611;19;20042;-74
2023/04/09 06:35:23;;;;;;;17.13;11.95;;;8.30;1.00;;;;;;7367087;19;20014;-73
2023/04/09 06:37:53;;;;;;;16.58;11.52;;;8.30;1.00;;;;;;7367497;19;20510;-73
2023/04/09 06:40:23;;;;;;;18.52;12.25;;;8.30;1.00;;;;;;7386129;19;20262;-73
2023/04/09 06:42:53;;;;;;;15.35;11.30;;;8.60;1.00;;;;;;7366951;19;20089;-74
2023/04/09 06:45:26;;;;;;;14.10;11.00;;;8.50;1.00;;;;;;7371144;19;20010;-74
2023/04/09 06:47:56;;;;;;;15.45;11.35;;;8.60;1.00;;;;;;7374664;19;20010;-74
2023/04/09 06:50:26;;;;;;;15.13;11.02;;;8.50;1.00;;;;;;7372152;19;20074;-74
2023/04/09 06:52:56;;;;;;;16.58;11.95;;;8.60;1.00;;;;;;7373603;19;20014;-74
2023/04/09 06:55:26;;;;;;;15.38;10.90;;;8.70;1.00;;;;;;7394494;19;20014;-73
2023/04/09 06:57:56;;;;;;;15.52;11.50;;;8.60;1.00;;;;;;7374321;19;20038;-74
2023/04/09 07:00:29;;;;;;;14.40;11.00;;;8.80;1.00;;;;;;7369257;19;20352;-74
2023/04/09 07:02:59;;;;;;;16.35;11.73;;;9.00;1.00;;;;;;7371872;19;20006;-73
2023/04/09 07:05:32;;;;;;;17.65;12.40;;;9.10;1.00;;;;;;7370572;19;20018;-73
2023/04/09 07:08:03;;;;;;;17.02;11.93;;;9.10;1.00;;;;;;7373938;19;20467;-74
2023/04/09 07:10:33;;;;;;;15.88;11.23;;;9.10;1.00;;;;;;7368807;19;20039;-73
2023/04/09 07:13:03;;;;;;;16.23;11.68;;;9.20;1.00;;;;;;7395584;19;20103;-73
2023/04/09 07:15:36;;;;;;;17.70;10.50;;;9.30;1.00;;;;;;7372017;19;20006;-74
2023/04/09 07:18:06;;;;;;;20.35;11.10;;;9.30;1.00;;;;;;7373583;19;20006;-74
2023/04/09 07:20:35;;;;;;;15.90;11.93;;;9.50;1.00;;;;;;7367895;19;20502;-74
2023/04/09 07:23:05;;;;;;;13.07;10.18;;;9.60;1.00;;;;;;7372863;19;20006;-73
2023/04/09 07:25:35;;;;;;;13.15;10.45;;;9.60;1.00;;;;;;7371134;19;20031;-73
2023/04/09 07:28:05;;;;;;;14.00;10.35;;;9.80;1.00;;;;;;7395328;19;20035;-76
2023/04/09 07:30:38;;;;;;;13.57;9.88;;;9.70;1.00;;;;;;7368543;19;20014;-74
2023/04/09 07:33:08;;;;;;;15.13;10.63;;;9.80;1.00;;;;;;7372301;19;20007;-73
2023/04/09 07:35:38;;;;;;;13.38;10.40;;;9.90;1.00;;;;;;7371203;19;20035;-74
2023/04/09 07:38:08;;;;;;;15.60;10.25;;;10.00;1.00;;;;;;7372797;19;20015;-75
2023/04/09 07:40:38;;;;;;;14.98;10.65;;;10.10;1.00;;;;;;7368743;19;20447;-73
2023/04/09 07:43:08;;;;;;;14.02;9.80;;;10.30;1.00;;;;;;7394299;19;20010;-75
2023/04/09 07:45:40;;;;;;;14.52;9.55;;;9.80;1.00;;;;;;7370700;19;20014;-75
2023/04/09 07:48:10;;;;;;;14.13;10.13;;;9.90;1.00;;;;;;7372121;19;20002;-76
2023/04/09 07:50:40;;;;;;;13.30;10.00;;;10.10;1.00;;;;;;7369614;19;20011;-74
2023/04/09 07:53:10;;;;;;;12.73;10.15;;;10.00;1.00;;;;;;7372562;19;20025;-74
2023/04/09 07:55:41;;;;;;;13.13;9.30;;;10.30;1.00;;;;;;7368235;19;20393;-73
2023/04/09 07:58:11;;;;;;;13.68;9.68;;;10.30;1.00;;;;;;7394613;19;20018;-74
2023/04/09 08:00:44;;;;;;;12.90;8.75;;;10.50;1.00;;;;;;7366943;19;20017;-75
2023/04/09 08:03:14;;;;;;;11.25;8.82;;;10.70;1.00;;;;;;7371589;19;20105;-74
2023/04/09 08:05:44;;;;;;;14.13;9.45;;;10.80;1.00;;;;;;7370493;19;20010;-74
2023/04/09 08:08:14;;;;;;;11.77;8.65;;;11.00;1.00;;;;;;7371801;19;20017;-74
2023/04/09 08:10:44;;;;;;;12.70;9.35;;;11.00;1.00;;;;;;7367845;19;20479;-74
2023/04/09 08:13:14;;;;;;;12.32;8.73;;;11.00;1.00;;;;;;7393789;19;20015;-74
2023/04/09 08:15:47;;;;;;;11.60;9.10;;;11.10;1.00;;;;;;7370023;19;20394;-74
2023/04/09 08:18:17;;;;;;;10.45;7.97;;;11.60;1.00;;;;;;7371031;19;20078;-74
2023/04/09 08:20:47;;;;;;;9.30;7.15;;;11.20;1.00;;;;;;7367419;19;20011;-74
2023/04/09 08:23:16;;;;;;;10.27;7.45;;;11.10;1.00;;;;;;7371039;19;20486;-75
2023/04/09 08:25:46;;;;;;;7.47;6.40;;;11.40;1.00;;;;;;7370679;19;20007;-74
2023/04/09 08:28:16;;;;;;;8.65;6.65;;;11.60;1.00;;;;;;7392874;19;20011;-75
2023/04/09 08:30:49;;;;;;;8.30;6.53;;;11.60;1.00;;;;;;7366944;19;20011;-74
2023/04/09 08:33:19;;;;;;;8.18;6.95;;;11.20;1.00;;;;;;7370767;19;20027;-73
2023/04/09 08:35:48;;;;;;;8.98;6.97;;;11.10;1.00;;;;;;7370413;19;20036;-74
2023/04/09 08:38:20;;;;;;;8.40;6.75;;;11.20;1.00;;;;;;7370785;19;20035;-75
2023/04/09 08:40:49;;;;;;;8.43;6.78;;;11.70;1.00;;;;;;7367368;19;20082;-74
2023/04/09 08:43:23;;;;;;;8.80;6.72;;;11.80;1.00;;;;;;7391410;19;20342;-74
2023/04/09 08:46:17;;;;;;;8.27;6.60;;;11.50;1.00;;;;;;7370799;19;20094;-75
2023/04/09 08:48:48;;;;;;;8.38;6.07;;;11.70;1.00;;;;;;7369098;19;20439;-74
2023/04/09 08:51:19;;;;;;;6.57;5.38;;;11.90;1.00;;;;;;7367911;19;20074;-74
2023/04/09 08:53:52;;;;;;;7.05;5.40;;;12.00;1.00;;;;;;7368839;19;20061;-74
2023/04/09 08:56:22;;;;;;;8.52;6.43;;;11.70;1.00;;;;;;7369834;19;20033;-75
2023/04/09 08:58:52;;;;;;;7.88;6.15;;;11.90;1.00;;;;;;7369110;19;20086;-75
2023/04/09 09:01:27;;;;;;;8.32;6.28;;;12.30;1.00;;;;;;7389842;19;20078;-73
2023/04/09 09:03:59;;;;;;;7.30;5.47;;;12.20;1.00;;;;;;7368934;19;20521;-75
2023/04/09 09:06:31;;;;;;;8.35;6.93;;;12.10;1.00;;;;;;7369498;19;20366;-75
2023/04/09 09:09:05;;;;;;;9.00;6.28;;;11.70;1.00;;;;;;7369187;19;20039;-75
2023/04/09 09:11:36;;;;;;;5.13;3.92;;;11.50;1.00;;;;;;7366998;19;20011;-74
2023/04/09 09:14:08;;;;;;;5.25;3.92;;;11.20;1.00;;;;;;7369234;19;20020;-74
2023/04/09 09:16:42;;;;;;;5.90;4.95;;;11.10;1.00;;;;;;7369775;19;20088;-73
2023/04/09 09:19:29;;;;;;;;;;;11.20;1.00;;;;;;7391031;19;20011;-74
2023/04/09 09:22:00;;;;;;;7.47;5.38;;;11.10;1.00;;;;;;7366964;19;19925;-74
2023/04/09 09:24:31;;;;;;;6.07;5.32;;;11.20;1.00;;;;;;7367666;19;20014;-75
2023/04/09 09:27:01;;;;;;;8.30;6.45;;;11.50;1.00;;;;;;7369066;19;20027;-74
2023/04/09 09:29:31;;;;;;;8.82;6.47;;;11.10;1.00;;;;;;7366399;19;20039;-74
2023/04/09 09:32:04;;;;;;;7.68;6.43;;;10.90;1.00;;;;;;7367606;19;20015;-74
2023/04/09 09:34:34;;;;;;;7.20;5.97;;;11.10;1.00;;;;;;7368653;19;20007;-75
2023/04/09 09:37:04;;;;;;;7.43;5.70;;;11.50;1.00;;;;;;7390478;19;20006;-73
2023/04/09 09:39:45;;;;;;;6.45;4.82;;;11.60;1.00;;;;;;7366754;19;20077;-74
2023/04/09 09:42:15;;;;;;;7.68;6.47;;;11.80;1.00;;;;;;7365684;19;20568;-75
2023/04/09 09:44:45;;;;;;;8.07;6.25;;;11.70;1.00;;;;;;7366535;19;20074;-74
2023/04/09 09:47:19;;;;;;;8.23;6.25;;;11.50;1.00;;;;;;7368479;19;20416;-74
2023/04/09 09:49:51;;;;;;;8.60;6.57;;;11.40;1.00;;;;;;7366772;19;20356;-74
2023/04/09 09:52:26;;;;;;;7.30;5.25;;;11.90;1.00;;;;;;7388861;19;20025;-74
2023/04/09 09:54:58;;;;;;;6.43;5.15;;;12.30;1.00;;;;;;7366655;19;20011;-74
2023/04/09 09:57:32;;;;;;;6.95;5.13;;;12.00;1.00;;;;;;7366427;19;20082;-75
2023/04/09 10:00:05;;;;;;;5.63;4.70;;;11.80;1.00;;;;;;7365217;19;20333;-75
2023/04/09 10:02:45;;;;;;;7.53;5.82;;;11.80;1.00;;;;;;7365541;19;20014;-74
2023/04/09 10:05:16;;;;;;;7.00;5.97;;;12.00;1.00;;;;;;7367536;19;20011;-75
2023/04/09 10:07:48;;;;;;;7.93;5.50;;;12.30;1.00;;;;;;7366958;19;20022;-74
2023/04/09 10:10:18;;;;;;;6.57;5.60;;;12.60;1.00;;;;;;7387337;19;20021;-75
2023/04/09 10:12:48;;;;;;;6.85;5.90;;;12.80;1.00;;;;;;7367208;19;20011;-74
2023/04/09 10:15:18;;;;;;;5.75;5.03;;;12.40;1.00;;;;;;7366888;19;20043;-74
2023/04/09 10:17:51;;;;;;;7.25;5.85;;;12.70;1.00;;;;;;7366802;19;20035;-74
2023/04/09 10:20:27;;;;;;;7.18;5.78;;;12.90;1.00;;;;;;7368446;19;20077;-75
2023/04/09 10:22:58;;;;;;;5.45;4.80;;;13.10;1.00;;;;;;7373044;19;20074;-74
2023/04/09 10:25:29;;;;;;;7.18;5.97;;;13.20;1.00;;;;;;7395559;19;20011;-74
2023/04/09 10:28:02;;;;;;;6.30;5.30;;;13.40;1.00;;;;;;7374562;19;20121;-72
2023/04/09 10:30:36;;;;;;;7.03;5.68;;;13.10;1.00;;;;;;7370331;19;20058;-75
2023/04/09 10:33:15;;;;;;;6.90;5.80;;;12.90;1.00;;;;;;7374010;19;20042;-74
2023/04/09 10:35:48;;;;;;;13.10;9.70;;;13.10;1.00;;;;;;7373483;19;20014;-74
2023/04/09 10:38:18;;;;;;;4.53;3.80;;;13.30;1.00;;;;;;7374304;19;20545;-75
2023/04/09 10:40:49;;;;;;;5.57;4.65;;;13.80;1.00;;;;;;7369415;19;20569;-74
2023/04/09 10:43:22;;;;;;;4.65;3.85;;;14.00;1.00;;;;;;7395020;19;20395;-74
2023/04/09 10:45:53;;;;;;;4.72;3.50;;;14.20;1.00;;;;;;7374758;19;20010;-74
2023/04/09 10:48:26;;;;;;;3.45;3.13;;;13.20;1.00;;;;;;7371219;19;20015;-75
2023/04/09 10:50:57;;;;;;;5.43;4.30;;;13.40;1.00;;;;;;7370662;19;20011;-75
2023/04/09 10:53:28;;;;;;;5.18;4.25;;;13.50;1.00;;;;;;7372638;19;20016;-75
2023/04/09 10:55:58;;;;;;;4.40;3.47;;;13.00;1.00;;;;;;7373420;19;20166;-74
2023/04/09 10:58:28;;;;;;;4.05;3.30;;;13.40;1.00;;;;;;7394700;19;20015;-76
2023/04/09 11:01:02;;;;;;;5.95;4.88;;;13.60;1.00;;;;;;7369427;19;20022;-74
2023/04/09 11:03:46;;;;;;;5.80;4.00;;;13.70;1.00;;;;;;7371155;19;20489;-75
2023/04/09 11:06:17;;;;;;;4.32;3.80;;;13.80;1.00;;;;;;7372982;19;20121;-75
2023/04/09 11:08:47;;;;;;;5.90;4.45;;;13.50;1.00;;;;;;7373565;19;20010;-74
2023/04/09 11:11:17;;;;;;;4.38;3.88;;;13.20;1.00;;;;;;7371362;19;20111;-75
2023/04/09 11:13:47;;;;;;;4.40;4.00;;;13.50;1.00;;;;;;7372279;19;20011;-74
2023/04/09 11:16:18;;;;;;;6.90;3.92;;;13.90;1.00;;;;;;7395346;19;20019;-75
2023/04/09 11:18:56;;;;;;;5.10;3.22;;;13.80;1.00;;;;;;7372702;19;20014;-75
2023/04/09 11:21:30;;;;;;;3.95;3.40;;;13.40;1.00;;;;;;7370614;19;20772;-75
2023/04/09 11:24:00;;;;;;;4.82;3.97;;;13.70;1.00;;;;;;7370596;19;20018;-75
2023/04/09 11:26:37;;;;;;;5.00;4.38;;;14.20;1.00;;;;;;7367746;19;20537;-75
2023/04/09 11:29:08;;;;;;;5.38;4.60;;;13.90;1.00;;;;;;7372473;19;20483;-75
2023/04/09 11:31:38;;;;;;;4.80;4.25;;;13.80;1.00;;;;;;7392578;19;20078;-75
2023/04/09 11:34:12;;;;;;;4.25;3.85;;;13.90;1.00;;;;;;7370992;19;20022;-74
2023/04/09 11:36:42;;;;;;;5.28;4.30;;;13.70;1.00;;;;;;7371143;19;20386;-74
2023/04/09 11:39:12;;;;;;;5.28;4.15;;;13.40;1.00;;;;;;7372299;19;20011;-74
2023/04/09 11:41:42;;;;;;;4.60;4.10;;;13.30;1.00;;;;;;7369276;19;20039;-74
2023/04/09 11:44:12;;;;;;;4.97;4.13;;;13.10;1.00;;;;;;7370019;19;20021;-75
2023/04/09 11:46:44;;;;;;;4.40;3.80;;;13.20;1.00;;;;;;7393881;19;20055;-75
2023/04/09 11:49:17;;;;;;;4.68;3.58;;;13.30;1.00;;;;;;7370082;19;20010;-74
2023/04/09 11:51:47;;;;;;;5.07;3.30;;;13.50;1.00;;;;;;7369606;19;20006;-75
2023/04/09 11:54:17;;;;;;;4.85;3.97;;;14.00;1.00;;;;;;7371114;19;20045;-74
2023/04/09 11:56:48;;;;;;;5.10;4.40;;;14.30;1.00;;;;;;7370613;19;20011;-75
2023/04/09 11:59:18;;;;;;;3.97;3.47;;;14.30;1.00;;;;;;7390368;19;20011;-74
2023/04/09 12:01:51;;;;;;;4.07;3.67;;;14.60;1.00;;;;;;7365955;19;20107;-75
2023/04/09 12:04:24;;;;;;;5.28;4.38;;;14.60;1.00;;;;;;7365719;19;20352;-75
2023/04/09 12:06:59;;;;;;;4.32;3.92;;;14.10;1.00;;;;;;7371168;19;20039;-77
2023/04/09 12:09:29;;;;;;;5.32;4.13;;;13.40;1.00;;;;;;7369810;19;20039;-78
2023/04/09 12:12:01;;;;;;;4.85;4.30;;;14.20;1.00;;;;;;7392650;19;20023;-78
2023/04/09 12:14:31;;;;;;;5.35;4.38;;;13.90;1.00;;;;;;7370538;19;20405;-76
2023/04/09 12:17:01;;;;;;;5.80;4.85;;;13.80;1.00;;;;;;7369479;19;20015;-78
2023/04/09 12:19:33;;;;;;;4.85;4.20;;;13.00;1.00;;;;;;7366400;19;20010;-75
2023/04/09 12:22:03;;;;;;;5.22;4.47;;;13.10;1.00;;;;;;7370630;19;20514;-74
2023/04/09 12:24:33;;;;;;;5.82;4.57;;;13.10;1.00;;;;;;7368362;19;20018;-75
2023/04/09 12:27:03;;;;;;;5.47;4.50;;;13.30;1.00;;;;;;7371219;19;20006;-74
2023/04/09 12:29:33;;;;;;;5.28;4.25;;;13.40;1.00;;;;;;7389675;19;20025;-74
2023/04/09 12:32:03;;;;;;;5.43;4.40;;;13.20;1.00;;;;;;7369039;19;20006;-75
2023/04/09 12:34:36;;;;;;;5.05;4.40;;;13.30;1.00;;;;;;7368969;19;20040;-74
2023/04/09 12:37:06;;;;;;;4.32;3.75;;;13.20;1.00;;;;;;7370505;19;20007;-75
2023/04/09 12:39:36;;;;;;;4.72;3.78;;;13.50;1.00;;;;;;7367192;19;20010;-74
2023/04/09 12:42:06;;;;;;;5.22;3.95;;;13.70;1.00;;;;;;7368870;19;20003;-74
2023/04/09 12:44:36;;;;;;;4.07;3.60;;;13.40;1.00;;;;;;7389859;19;20010;-74
2023/04/09 12:47:06;;;;;;;5.00;4.05;;;13.30;1.00;;;;;;7368914;19;20083;-74
2023/04/09 12:49:39;;;;;;;4.97;3.92;;;13.80;1.00;;;;;;7366306;19;20028;-75
2023/04/09 12:52:11;;;;;;;4.22;3.47;;;13.70;1.00;;;;;;7369392;19;20007;-75
2023/04/09 12:54:40;;;;;;;4.07;3.38;;;14.00;1.00;;;;;;7367819;19;20534;-75
2023/04/09 12:57:10;;;;;;;6.45;3.85;;;13.90;1.00;;;;;;7371095;19;20027;-74
2023/04/09 12:59:40;;;;;;;5.63;3.72;;;13.80;1.00;;;;;;7389493;19;20018;-75
2023/04/09 13:02:10;;;;;;;5.15;3.72;;;13.70;1.00;;;;;;7368201;19;20011;-75
2023/04/09 13:04:43;;;;;;;4.35;3.42;;;13.90;1.00;;;;;;7367049;19;20006;-74
2023/04/09 13:07:14;;;;;;;4.47;3.90;;;14.20;1.00;;;;;;7368404;19;20035;-74
2023/04/09 13:09:44;;;;;;;4.95;3.80;;;14.30;1.00;;;;;;7367001;19;20522;-75